createdAt,value
2023-04-12T00:01:47.841Z,2.15
2023-04-12T00:04:55.701Z,2.47
2023-04-12T00:08:00.951Z,2.88
2023-04-12T00:11:03.776Z,2.22
2023-04-12T00:14:06.175Z,2.00
2023-04-12T00:17:08.499Z,3.60
2023-04-12T00:20:14.352Z,2.83
2023-04-12T00:23:17.428Z,1.80
2023-04-12T00:26:21.829Z,2.28
2023-04-12T00:29:24.943Z,3.03
2023-04-12T00:32:27.723Z,4.78
2023-04-12T00:35:30.104Z,2.50
2023-04-12T00:38:32.534Z,2.45
2023-04-12T00:41:37.248Z,2.72
2023-04-12T00:44:39.671Z,3.00
2023-04-12T00:47:43.517Z,2.00
2023-04-12T00:50:46.783Z,2.30
2023-04-12T00:53:49.234Z,4.30
2023-04-12T00:56:51.759Z,3.20
2023-04-12T00:59:54.026Z,4.45
2023-04-12T01:02:57.246Z,2.25
2023-04-12T01:06:14.068Z,3.93
2023-04-12T01:09:36.039Z,2.42
2023-04-12T01:12:51.564Z,4.65
2023-04-12T01:16:03.853Z,5.13
2023-04-12T01:19:19.719Z,3.33
2023-04-12T01:22:32.787Z,3.40
2023-04-12T01:25:39.516Z,5.43
2023-04-12T01:28:42.866Z,3.17
2023-04-12T01:31:52.275Z,5.38
2023-04-12T01:34:55.502Z,2.13
2023-04-12T01:37:58.670Z,5.30
2023-04-12T01:41:01.397Z,3.58
2023-04-12T01:44:03.844Z,2.78
2023-04-12T01:47:06.185Z,3.40
2023-04-12T01:50:31.211Z,4.45
2023-04-12T01:53:44.838Z,3.10
2023-04-12T01:56:52.449Z,3.53
2023-04-12T01:59:57.058Z,2.45
2023-04-12T02:03:00.004Z,3.08
2023-04-12T02:06:03.975Z,3.15
2023-04-12T02:09:07.025Z,3.13
2023-04-12T02:12:09.468Z,3.92
2023-04-12T02:15:13.264Z,3.08
2023-04-12T02:18:17.016Z,7.03
2023-04-12T02:21:19.413Z,4.63
2023-04-12T02:24:21.943Z,3.03
2023-04-12T02:27:24.205Z,5.15
2023-04-12T02:30:26.813Z,3.08
2023-04-12T02:33:30.792Z,4.35
2023-04-12T02:36:38.206Z,3.50
2023-04-12T02:39:41.523Z,3.53
2023-04-12T02:42:44.673Z,2.75
2023-04-12T02:45:49.269Z,3.05
2023-04-12T02:48:51.855Z,2.92
2023-04-12T02:51:55.906Z,4.22
2023-04-12T02:55:04.632Z,5.03
2023-04-12T02:58:07.297Z,2.63
2023-04-12T03:01:17.106Z,5.20
2023-04-12T03:04:40.139Z,5.22
2023-04-12T03:07:48.667Z,3.88
2023-04-12T03:10:54.888Z,2.57
2023-04-12T03:13:57.982Z,3.05
2023-04-12T03:17:00.494Z,6.63
2023-04-12T03:20:12.101Z,2.70
2023-04-12T03:23:20.924Z,4.40
2023-04-12T03:26:39.721Z,5.00
2023-04-12T03:29:49.577Z,5.50
2023-04-12T03:32:54.784Z,3.92
2023-04-12T03:35:57.962Z,4.07
2023-04-12T03:39:01.160Z,4.53
2023-04-12T03:42:05.835Z,3.40
2023-04-12T03:45:09.082Z,4.47
2023-04-12T03:48:12.137Z,3.25
2023-04-12T03:51:18.664Z,4.13
2023-04-12T03:54:21.097Z,3.25
2023-04-12T03:57:33.067Z,7.00
2023-04-12T04:00:36.224Z,3.92
2023-04-12T04:03:46.467Z,7.20
2023-04-12T04:06:55.743Z,4.13
2023-04-12T04:09:59.076Z,4.43
2023-04-12T04:13:06.990Z,4.17
2023-04-12T04:16:11.144Z,14.68
2023-04-12T04:19:15.746Z,5.40
2023-04-12T04:22:21.821Z,9.60
2023-04-12T04:25:33.668Z,6.47
2023-04-12T04:28:45.073Z,8.37
2023-04-12T04:31:50.910Z,4.55
2023-04-12T04:34:56.408Z,4.95
2023-04-12T04:37:59.024Z,5.50
2023-04-12T04:41:03.614Z,4.60
2023-04-12T04:44:20.425Z,5.37
2023-04-12T04:47:32.019Z,7.57
2023-04-12T04:50:34.360Z,3.38
2023-04-12T04:53:38.495Z,3.85
2023-04-12T04:56:41.152Z,12.85
2023-04-12T04:59:45.978Z,5.90
2023-04-12T05:02:51.785Z,4.07
2023-04-12T05:06:01.503Z,3.83
2023-04-12T05:09:05.427Z,10.18
2023-04-12T05:12:12.603Z,4.25
2023-04-12T05:15:19.296Z,5.03
2023-04-12T05:18:21.726Z,6.25
2023-04-12T05:21:24.671Z,5.60
2023-04-12T05:24:27.414Z,11.63
2023-04-12T05:27:32.063Z,7.40
2023-04-12T05:30:35.455Z,7.07
2023-04-12T05:33:39.721Z,4.10
2023-04-12T05:36:42.107Z,4.13
2023-04-12T05:39:44.644Z,4.53
2023-04-12T05:42:48.122Z,3.10
2023-04-12T05:45:51.329Z,7.53
2023-04-12T05:48:56.671Z,3.10
2023-04-12T05:51:59.338Z,3.97
2023-04-12T05:55:01.662Z,7.47
2023-04-12T05:58:05.374Z,5.43
2023-04-12T06:01:08.174Z,3.23
2023-04-12T06:04:10.950Z,2.97
2023-04-12T06:07:17.740Z,4.45
2023-04-12T06:10:20.165Z,6.03
2023-04-12T06:13:26.443Z,3.80
2023-04-12T06:16:29.736Z,3.87
2023-04-12T06:19:32.599Z,5.13
2023-04-12T06:22:35.114Z,2.58
2023-04-12T06:25:37.740Z,3.88
2023-04-12T06:28:41.197Z,3.65
2023-04-12T06:31:43.646Z,5.20
2023-04-12T06:34:46.529Z,6.10
2023-04-12T06:37:50.354Z,3.58
2023-04-12T06:40:52.659Z,5.63
2023-04-12T06:43:54.875Z,4.30
2023-04-12T06:46:57.850Z,3.93
2023-04-12T06:50:00.501Z,4.00
2023-04-12T06:53:02.935Z,3.03
2023-04-12T06:56:06.188Z,2.65
2023-04-12T06:59:09.187Z,4.40
2023-04-12T07:02:12.130Z,5.03
2023-04-12T07:05:14.614Z,2.30
2023-04-12T07:08:17.059Z,5.15
2023-04-12T07:11:21.889Z,3.45
2023-04-12T07:14:24.621Z,4.15
2023-04-12T07:17:29.677Z,3.53
2023-04-12T07:20:32.083Z,3.10
2023-04-12T07:23:34.480Z,4.82
2023-04-12T07:26:36.873Z,3.38
2023-04-12T07:29:39.120Z,3.15
2023-04-12T07:32:41.561Z,3.33
2023-04-12T07:35:43.969Z,2.88
2023-04-12T07:38:46.339Z,6.60
2023-04-12T07:41:49.749Z,3.58
2023-04-12T07:44:52.372Z,2.97
2023-04-12T07:47:54.759Z,3.00
2023-04-12T07:50:57.495Z,3.35
2023-04-12T07:53:59.779Z,10.35
2023-04-12T07:57:03.874Z,3.70
2023-04-12T08:00:07.613Z,4.22
2023-04-12T08:03:17.072Z,2.40
2023-04-12T08:06:19.406Z,4.50
2023-04-12T08:09:22.176Z,2.63
2023-04-12T08:12:24.472Z,3.33
2023-04-12T08:15:26.839Z,3.20
2023-04-12T08:18:29.421Z,4.33
2023-04-12T08:21:31.896Z,4.50
2023-04-12T08:24:34.210Z,4.60
2023-04-12T08:27:36.822Z,3.58
2023-04-12T08:30:39.134Z,4.55
2023-04-12T08:33:41.514Z,3.93
2023-04-12T08:36:43.832Z,3.25
2023-04-12T08:39:46.361Z,2.20
2023-04-12T08:42:48.626Z,3.05
2023-04-12T08:45:51.182Z,4.13
2023-04-12T08:48:54.629Z,3.33
2023-04-12T08:52:03.292Z,2.97
2023-04-12T08:55:09.788Z,3.45
2023-04-12T08:58:15.008Z,4.43
2023-04-12T09:01:18.785Z,4.10
2023-04-12T09:04:21.229Z,3.87
2023-04-12T09:07:23.957Z,4.45
2023-04-12T09:10:37.871Z,5.30
2023-04-12T09:13:40.460Z,5.28
2023-04-12T09:16:42.957Z,10.52
2023-04-12T09:19:45.328Z,3.13
2023-04-12T09:22:47.970Z,3.83
2023-04-12T09:25:52.934Z,4.47
2023-04-12T09:28:55.401Z,2.83
2023-04-12T09:32:00.953Z,2.38
2023-04-12T09:35:05.670Z,3.03
2023-04-12T09:38:09.346Z,7.00
2023-04-12T09:41:27.108Z,2.47
2023-04-12T09:44:30.641Z,2.28
2023-04-12T09:47:40.201Z,3.47
2023-04-12T09:50:42.853Z,3.47
2023-04-12T09:53:47.170Z,3.83
2023-04-12T09:56:50.081Z,3.35
2023-04-12T09:59:53.664Z,4.50
2023-04-12T10:02:56.683Z,1.65
2023-04-12T10:05:59.843Z,2.10
2023-04-12T10:09:06.825Z,2.88
2023-04-12T10:12:09.699Z,2.83
2023-04-12T10:15:13.524Z,1.90
2023-04-12T10:18:18.728Z,1.45
2023-04-12T10:21:21.485Z,1.77
2023-04-12T10:24:24.752Z,2.38
2023-04-12T10:27:27.643Z,1.70
2023-04-12T10:30:32.271Z,3.05
2023-04-12T10:33:36.175Z,5.72
2023-04-12T10:36:57.587Z,7.90
2023-04-12T10:40:03.262Z,1.80
2023-04-12T10:43:23.834Z,2.55
2023-04-12T10:46:37.539Z,2.35
2023-04-12T10:49:40.257Z,3.63
2023-04-12T10:52:42.952Z,1.73
2023-04-12T10:55:45.660Z,5.90
2023-04-12T10:58:53.558Z,3.67
2023-04-12T11:02:09.672Z,4.85
2023-04-12T11:05:14.445Z,2.75
2023-04-12T11:08:42.184Z,3.30
2023-04-12T11:12:04.770Z,2.30
2023-04-12T11:15:07.997Z,4.78
2023-04-12T11:18:22.134Z,2.13
2023-04-12T11:21:24.781Z,4.82
2023-04-12T11:24:27.741Z,15.30
2023-04-12T11:27:31.902Z,5.97
2023-04-12T11:30:34.212Z,3.05
2023-04-12T11:33:38.392Z,3.55
2023-04-12T11:36:41.812Z,3.65
2023-04-12T11:39:45.482Z,2.20
2023-04-12T11:42:47.795Z,4.40
2023-04-12T11:45:56.505Z,3.88
2023-04-12T11:48:59.792Z,4.18
2023-04-12T11:52:04.655Z,3.58
2023-04-12T11:55:08.841Z,3.57
2023-04-12T11:58:11.271Z,3.47
2023-04-12T12:01:14.907Z,6.20
2023-04-12T12:04:18.047Z,8.85
2023-04-12T12:07:22.145Z,7.43
2023-04-12T12:10:39.930Z,3.83
2023-04-12T12:13:47.873Z,6.75
2023-04-12T12:16:57.984Z,2.80
2023-04-12T12:20:01.563Z,5.82
2023-04-12T12:23:03.909Z,2.97
2023-04-12T12:26:18.458Z,4.23
2023-04-12T12:29:23.537Z,4.55
2023-04-12T12:32:25.922Z,4.50
2023-04-12T12:35:28.279Z,2.45
2023-04-12T12:38:40.689Z,3.75
2023-04-12T12:41:42.977Z,4.60
2023-04-12T12:44:45.361Z,4.07
2023-04-12T12:47:54.904Z,2.90
2023-04-12T12:50:58.408Z,4.85
2023-04-12T12:54:01.264Z,2.85
2023-04-12T12:57:04.478Z,2.30
2023-04-12T13:00:07.576Z,3.50
2023-04-12T13:03:10.142Z,1.92
2023-04-12T13:06:12.539Z,6.45
2023-04-12T13:09:14.898Z,2.53
2023-04-12T13:12:17.262Z,4.53
2023-04-12T13:15:23.852Z,4.15
2023-04-12T13:18:27.100Z,5.38
2023-04-12T13:21:29.370Z,4.43
2023-04-12T13:24:31.675Z,1.15
2023-04-12T13:27:34.018Z,3.97
2023-04-12T13:30:36.412Z,4.38
2023-04-12T13:33:38.811Z,5.22
2023-04-12T13:36:41.135Z,2.92
2023-04-12T13:39:44.784Z,1.85
2023-04-12T13:42:47.071Z,4.37
2023-04-12T13:45:50.827Z,3.13
2023-04-12T13:48:53.189Z,4.80
2023-04-12T13:51:56.465Z,3.42
2023-04-12T13:54:59.752Z,1.73
2023-04-12T13:58:02.100Z,2.43
2023-04-12T14:01:04.555Z,3.53
2023-04-12T14:04:07.805Z,3.25
2023-04-12T14:07:10.104Z,3.03
2023-04-12T14:10:12.495Z,5.30
2023-04-12T14:13:14.802Z,3.37
2023-04-12T14:16:17.172Z,6.32
2023-04-12T14:19:20.792Z,4.38
2023-04-12T14:22:23.099Z,4.03
2023-04-12T14:25:25.718Z,7.93
2023-04-12T14:28:31.005Z,1.73
2023-04-12T14:31:34.681Z,3.60
2023-04-12T14:34:38.131Z,3.03
2023-04-12T14:37:40.679Z,2.90
2023-04-12T14:40:42.981Z,3.72
2023-04-12T14:43:46.542Z,3.03
2023-04-12T14:46:49.037Z,2.20
2023-04-12T14:49:51.381Z,2.65
2023-04-12T14:52:54.500Z,2.10
2023-04-12T14:55:56.871Z,1.35
2023-04-12T14:58:59.097Z,3.13
2023-04-12T15:02:01.785Z,2.17
2023-04-12T15:05:07.497Z,1.25
2023-04-12T15:08:09.884Z,6.20
2023-04-12T15:11:12.794Z,7.82
2023-04-12T15:14:20.169Z,5.13
2023-04-12T15:17:24.367Z,1.92
2023-04-12T15:20:26.802Z,2.78
2023-04-12T15:23:29.099Z,2.60
2023-04-12T15:26:31.829Z,5.10
2023-04-12T15:29:35.670Z,3.53
2023-04-12T15:32:41.339Z,2.03
2023-04-12T15:35:44.664Z,1.60
2023-04-12T15:38:47.400Z,1.65
2023-04-12T15:41:49.757Z,1.67
2023-04-12T15:44:52.081Z,2.60
2023-04-12T15:47:55.324Z,5.10
2023-04-12T15:50:57.785Z,3.72
2023-04-12T15:54:00.310Z,2.75
2023-04-12T15:57:09.540Z,1.60
2023-04-12T16:00:20.937Z,2.63
2023-04-12T16:03:24.974Z,2.40
2023-04-12T16:06:28.387Z,3.78
2023-04-12T16:09:34.956Z,1.98
2023-04-12T16:12:37.235Z,2.85
2023-04-12T16:15:39.736Z,2.00
2023-04-12T16:18:42.465Z,1.90
2023-04-12T16:21:45.178Z,1.73
2023-04-12T16:24:47.671Z,2.15
2023-04-12T16:27:50.793Z,0.93
2023-04-12T16:30:53.435Z,2.17
2023-04-12T16:33:56.040Z,1.90
2023-04-12T16:36:58.739Z,2.30
2023-04-12T16:40:02.666Z,2.72
2023-04-12T16:43:06.107Z,1.58
2023-04-12T16:46:09.515Z,3.33
2023-04-12T16:49:14.308Z,3.35
2023-04-12T16:52:18.293Z,2.17
2023-04-12T16:55:22.285Z,4.32
2023-04-12T16:58:25.251Z,2.05
2023-04-12T17:01:28.291Z,2.63
2023-04-12T17:04:31.972Z,3.05
2023-04-12T17:07:36.206Z,3.08
2023-04-12T17:10:38.794Z,1.58
2023-04-12T17:13:42.334Z,1.73
2023-04-12T17:16:44.798Z,3.13
2023-04-12T17:19:47.209Z,3.45
2023-04-12T17:22:50.030Z,2.22
2023-04-12T17:25:52.441Z,2.33
2023-04-12T17:28:54.825Z,3.38
2023-04-12T17:31:57.462Z,4.23
2023-04-12T17:35:00.155Z,2.83
2023-04-12T17:38:02.477Z,2.50
2023-04-12T17:41:04.983Z,4.45
2023-04-12T17:44:07.909Z,3.58
2023-04-12T17:47:10.504Z,3.90
2023-04-12T17:50:13.042Z,4.47
2023-04-12T17:53:15.385Z,4.80
2023-04-12T17:56:17.775Z,7.60
2023-04-12T17:59:20.150Z,3.38
2023-04-12T18:02:23.379Z,5.10
2023-04-12T18:05:26.108Z,4.35
2023-04-12T18:08:28.700Z,6.68
2023-04-12T18:11:31.168Z,5.03
2023-04-12T18:14:33.684Z,5.35
2023-04-12T18:17:36.476Z,4.60
2023-04-12T18:20:39.372Z,7.32
2023-04-12T18:23:42.115Z,5.85
2023-04-12T18:26:48.542Z,4.57
2023-04-12T18:29:51.842Z,4.50
2023-04-12T18:32:56.190Z,3.40
2023-04-12T18:35:58.750Z,4.22
2023-04-12T18:39:05.897Z,4.90
2023-04-12T18:42:08.980Z,3.70
2023-04-12T18:45:11.717Z,5.35
2023-04-12T18:48:14.908Z,4.73
2023-04-12T18:51:18.193Z,7.68
2023-04-12T18:54:21.209Z,6.85
2023-04-12T18:57:24.048Z,5.07
2023-04-12T19:00:26.408Z,4.68
2023-04-12T19:03:30.823Z,8.87
2023-04-12T19:06:34.994Z,9.13
2023-04-12T19:09:39.260Z,11.70
2023-04-12T19:12:42.662Z,16.23
2023-04-12T19:15:44.995Z,17.20
2023-04-12T19:18:47.330Z,15.60
2023-04-12T19:21:52.006Z,13.13
2023-04-12T19:24:54.695Z,10.40
2023-04-12T19:28:01.228Z,6.20
2023-04-12T19:31:10.595Z,7.72
2023-04-12T19:34:17.698Z,5.27
2023-04-12T19:37:20.271Z,7.90
2023-04-12T19:40:22.647Z,5.45
2023-04-12T19:43:25.772Z,4.82
2023-04-12T19:46:29.098Z,4.40
2023-04-12T19:49:33.389Z,8.67
2023-04-12T19:52:36.891Z,4.20
2023-04-12T19:55:39.347Z,3.55
2023-04-12T19:58:41.668Z,6.32
2023-04-12T20:01:49.621Z,4.82
2023-04-12T20:04:53.510Z,6.50
2023-04-12T20:07:56.219Z,8.57
2023-04-12T20:10:58.708Z,7.13
2023-04-12T20:14:01.028Z,3.58
2023-04-12T20:17:06.193Z,3.78
2023-04-12T20:20:14.011Z,5.80
2023-04-12T20:23:17.232Z,5.85
2023-04-12T20:26:21.234Z,5.65
2023-04-12T20:29:24.059Z,8.40
2023-04-12T20:32:26.565Z,6.13
2023-04-12T20:35:28.982Z,6.33
2023-04-12T20:38:31.446Z,7.05
2023-04-12T20:41:38.233Z,8.75
2023-04-12T20:44:40.623Z,6.55
2023-04-12T20:47:42.978Z,15.85
2023-04-12T20:50:46.337Z,15.20
2023-04-12T20:53:48.725Z,14.80
2023-04-12T20:56:51.133Z,13.65
2023-04-12T20:59:53.777Z,17.90
2023-04-12T21:02:58.568Z,15.10
2023-04-12T21:06:02.524Z,19.00
2023-04-12T21:09:05.976Z,18.23
2023-04-12T21:12:08.886Z,18.25
2023-04-12T21:15:12.232Z,16.88
2023-04-12T21:18:15.286Z,16.17
2023-04-12T21:21:19.169Z,16.50
2023-04-12T21:24:23.284Z,12.65
2023-04-12T21:27:26.668Z,13.75
2023-04-12T21:30:29.451Z,13.43
2023-04-12T21:33:32.262Z,14.05
2023-04-12T21:36:35.052Z,18.30
2023-04-12T21:39:39.282Z,13.90
2023-04-12T21:42:41.720Z,11.98
2023-04-12T21:45:45.471Z,12.45
2023-04-12T21:48:49.809Z,16.98
2023-04-12T21:51:52.404Z,14.13
2023-04-12T21:54:55.624Z,13.43
2023-04-12T21:57:59.845Z,10.48
2023-04-12T22:01:02.653Z,11.07
2023-04-12T22:04:06.101Z,11.68
2023-04-12T22:07:12.610Z,11.33
2023-04-12T22:10:15.083Z,11.10
2023-04-12T22:13:18.201Z,10.50
2023-04-12T22:16:22.239Z,15.52
2023-04-12T22:19:25.058Z,13.88
2023-04-12T22:22:31.856Z,14.23
2023-04-12T22:25:35.444Z,12.75
2023-04-12T22:28:38.334Z,10.73
2023-04-12T22:31:40.714Z,13.65
2023-04-12T22:34:43.771Z,13.15
2023-04-12T22:37:46.974Z,9.60
2023-04-12T22:40:49.546Z,9.93
2023-04-12T22:44:01.388Z,10.55
2023-04-12T22:47:06.899Z,14.27
2023-04-12T22:50:10.828Z,11.30
2023-04-12T22:53:14.021Z,14.33
2023-04-12T22:56:16.906Z,14.60
2023-04-12T22:59:20.274Z,12.70
2023-04-12T23:02:22.873Z,12.95
2023-04-12T23:05:26.226Z,15.68
2023-04-12T23:08:29.359Z,15.30
2023-04-12T23:11:36.904Z,13.27
2023-04-12T23:14:40.071Z,12.70
2023-04-12T23:17:42.844Z,15.82
2023-04-12T23:20:46.544Z,17.60
2023-04-12T23:23:49.244Z,14.70
2023-04-12T23:26:51.602Z,18.60
2023-04-12T23:29:54.782Z,15.75
2023-04-12T23:33:00.265Z,14.27
2023-04-12T23:36:05.993Z,14.40
2023-04-12T23:39:09.502Z,19.97
2023-04-12T23:42:15.330Z,14.63
2023-04-12T23:45:18.026Z,13.48
2023-04-12T23:48:20.582Z,20.55
2023-04-12T23:51:23.357Z,17.23
2023-04-12T23:54:27.238Z,16.93
2023-04-12T23:57:29.777Z,15.20
